createdAt,value
2024-02-10T00:01:09.346Z,7.80
2024-02-10T00:03:37.701Z,7.80
2024-02-10T00:06:07.304Z,7.90
2024-02-10T00:08:39.360Z,8.00
2024-02-10T00:11:07.950Z,8.00
2024-02-10T00:13:39.194Z,8.10
2024-02-10T00:16:13.567Z,8.00
2024-02-10T00:18:43.014Z,7.90
2024-02-10T00:21:11.375Z,7.90
2024-02-10T00:23:39.702Z,7.90
2024-02-10T00:26:08.053Z,7.90
2024-02-10T00:28:37.078Z,7.90
2024-02-10T00:31:05.779Z,7.90
2024-02-10T00:33:35.694Z,7.80
2024-02-10T00:36:03.952Z,7.90
2024-02-10T00:38:32.232Z,7.90
2024-02-10T00:41:04.556Z,7.80
2024-02-10T00:43:33.032Z,7.80
2024-02-10T00:46:01.429Z,7.80
2024-02-10T00:48:29.842Z,7.80
2024-02-10T00:51:00.997Z,7.80
2024-02-10T00:53:29.409Z,7.80
2024-02-10T00:55:57.730Z,7.80
2024-02-10T00:58:26.083Z,7.80
2024-02-10T01:00:55.009Z,7.80
2024-02-10T01:03:23.822Z,7.90
2024-02-10T01:05:52.239Z,7.90
2024-02-10T01:08:23.023Z,7.80
2024-02-10T01:10:52.459Z,7.80
2024-02-10T01:13:20.941Z,7.80
2024-02-10T01:15:51.777Z,7.90
2024-02-10T01:18:20.330Z,7.90
2024-02-10T01:20:48.774Z,7.90
2024-02-10T01:23:17.084Z,7.80
2024-02-10T01:25:46.977Z,7.80
2024-02-10T01:28:15.327Z,7.80
2024-02-10T01:30:43.561Z,7.90
2024-02-10T01:33:13.483Z,7.80
2024-02-10T01:35:41.713Z,7.90
2024-02-10T01:38:10.784Z,7.80
2024-02-10T01:40:39.091Z,7.80
2024-02-10T01:43:08.820Z,7.80
2024-02-10T01:45:39.977Z,7.80
2024-02-10T01:48:10.097Z,7.80
2024-02-10T01:50:39.232Z,7.80
2024-02-10T01:53:07.849Z,7.90
2024-02-10T01:55:36.217Z,7.90
2024-02-10T01:58:07.715Z,7.80
2024-02-10T02:00:37.542Z,7.80
2024-02-10T02:03:06.409Z,7.70
2024-02-10T02:05:35.059Z,7.70
2024-02-10T02:08:05.954Z,7.60
2024-02-10T02:10:34.598Z,7.60
2024-02-10T02:13:04.705Z,7.60
2024-02-10T02:15:33.142Z,7.60
2024-02-10T02:18:02.919Z,7.60
2024-02-10T02:20:31.850Z,7.60
2024-02-10T02:23:04.765Z,7.50
2024-02-10T02:25:36.054Z,7.50
2024-02-10T02:28:04.637Z,7.40
2024-02-10T02:30:37.920Z,7.50
2024-02-10T02:33:07.767Z,7.60
2024-02-10T02:35:36.075Z,7.60
2024-02-10T02:38:05.214Z,7.60
2024-02-10T02:40:33.565Z,7.60
2024-02-10T02:43:03.875Z,7.60
2024-02-10T02:45:32.709Z,7.70
2024-02-10T02:48:03.174Z,7.60
2024-02-10T02:50:32.064Z,7.60
2024-02-10T02:53:01.515Z,7.60
2024-02-10T02:55:31.901Z,7.50
2024-02-10T02:58:10.794Z,7.40
2024-02-10T03:00:40.013Z,7.40
2024-02-10T03:03:08.791Z,7.50
2024-02-10T03:05:37.031Z,7.50
2024-02-10T03:08:08.159Z,7.50
2024-02-10T03:10:38.425Z,7.50
2024-02-10T03:13:06.803Z,7.50
2024-02-10T03:15:38.997Z,7.40
2024-02-10T03:18:09.044Z,7.50
2024-02-10T03:20:37.447Z,7.40
2024-02-10T03:23:08.454Z,7.40
2024-02-10T03:25:38.095Z,7.30
2024-02-10T03:28:06.766Z,7.30
2024-02-10T03:30:35.239Z,7.30
2024-02-10T03:33:03.626Z,7.40
2024-02-10T03:35:34.219Z,7.40
2024-02-10T03:38:03.153Z,7.30
2024-02-10T03:40:31.485Z,7.30
2024-02-10T03:43:01.169Z,7.30
2024-02-10T03:45:34.751Z,7.30
2024-02-10T03:48:08.641Z,7.30
2024-02-10T03:50:37.143Z,7.20
2024-02-10T03:53:05.763Z,7.20
2024-02-10T03:55:34.199Z,7.20
2024-02-10T03:58:04.031Z,7.20
2024-02-10T04:00:32.367Z,7.20
2024-02-10T04:03:00.615Z,7.20
2024-02-10T04:05:34.915Z,7.10
2024-02-10T04:08:04.100Z,7.10
2024-02-10T04:10:32.915Z,7.10
2024-02-10T04:13:04.004Z,7.10
2024-02-10T04:15:33.892Z,7.10
2024-02-10T04:18:03.348Z,7.00
2024-02-10T04:20:31.825Z,7.10
2024-02-10T04:23:00.624Z,7.10
2024-02-10T04:25:32.173Z,7.00
2024-02-10T04:28:03.617Z,7.10
2024-02-10T04:30:33.641Z,7.10
2024-02-10T04:33:02.614Z,7.10
2024-02-10T04:35:31.296Z,7.10
2024-02-10T04:38:03.010Z,7.10
2024-02-10T04:40:31.692Z,7.10
2024-02-10T04:43:00.042Z,7.10
2024-02-10T04:45:30.773Z,7.00
2024-02-10T04:48:01.017Z,6.90
2024-02-10T04:50:30.038Z,6.80
2024-02-10T04:52:58.904Z,6.70
2024-02-10T04:55:27.685Z,6.70
2024-02-10T04:57:57.096Z,6.70
2024-02-10T05:00:26.241Z,6.70
2024-02-10T05:02:54.659Z,6.80
2024-02-10T05:05:24.718Z,6.70
2024-02-10T05:07:55.139Z,6.80
2024-02-10T05:10:23.892Z,6.80
2024-02-10T05:12:53.644Z,6.80
2024-02-10T05:15:24.574Z,6.80
2024-02-10T05:17:54.160Z,6.80
2024-02-10T05:20:25.472Z,6.80
2024-02-10T05:22:54.980Z,6.70
2024-02-10T05:25:24.916Z,6.70
2024-02-10T05:27:53.921Z,6.60
2024-02-10T05:30:25.446Z,6.60
2024-02-10T05:32:54.782Z,6.60
2024-02-10T05:35:25.744Z,6.60
2024-02-10T05:37:56.250Z,6.60
2024-02-10T05:40:25.596Z,6.80
2024-02-10T05:42:57.918Z,6.80
2024-02-10T05:45:26.166Z,6.90
2024-02-10T05:47:54.865Z,6.80
2024-02-10T05:50:26.448Z,6.80
2024-02-10T05:52:58.952Z,6.80
2024-02-10T05:55:28.874Z,6.80
2024-02-10T05:58:00.429Z,6.80
2024-02-10T06:00:28.865Z,7.00
2024-02-10T06:02:57.528Z,7.00
2024-02-10T06:05:29.414Z,7.00
2024-02-10T06:07:59.137Z,7.00
2024-02-10T06:10:27.822Z,7.00
2024-02-10T06:12:56.554Z,7.00
2024-02-10T06:15:28.013Z,7.00
2024-02-10T06:17:57.974Z,7.10
2024-02-10T06:20:28.038Z,7.10
2024-02-10T06:22:58.385Z,7.10
2024-02-10T06:25:28.009Z,7.10
2024-02-10T06:27:58.411Z,7.10
2024-02-10T06:30:29.543Z,7.10
2024-02-10T06:32:58.736Z,7.10
2024-02-10T06:35:29.037Z,7.10
2024-02-10T06:37:58.745Z,7.20
2024-02-10T06:40:27.095Z,7.20
2024-02-10T06:42:55.395Z,7.20
2024-02-10T06:45:26.241Z,7.20
2024-02-10T06:47:55.064Z,7.20
2024-02-10T06:50:28.416Z,7.20
2024-02-10T06:53:01.779Z,7.20
2024-02-10T06:55:31.056Z,7.20
2024-02-10T06:58:02.206Z,7.30
2024-02-10T07:00:31.968Z,7.20
2024-02-10T07:03:01.410Z,7.30
2024-02-10T07:05:29.884Z,7.30
2024-02-10T07:08:00.122Z,7.30
2024-02-10T07:10:28.696Z,7.40
2024-02-10T07:12:59.770Z,7.50
2024-02-10T07:15:31.928Z,7.50
2024-02-10T07:18:04.045Z,7.60
2024-02-10T07:20:33.961Z,7.60
2024-02-10T07:23:06.018Z,7.70
2024-02-10T07:25:36.971Z,7.70
2024-02-10T07:28:06.722Z,7.80
2024-02-10T07:30:36.686Z,7.80
2024-02-10T07:33:11.156Z,7.90
2024-02-10T07:35:41.945Z,7.90
2024-02-10T07:38:12.297Z,7.90
2024-02-10T07:40:41.080Z,8.00
2024-02-10T07:43:13.858Z,8.10
2024-02-10T07:45:42.291Z,8.10
2024-02-10T07:48:10.909Z,8.10
2024-02-10T07:50:42.170Z,8.20
2024-02-10T07:53:16.099Z,8.20
2024-02-10T07:55:48.668Z,8.30
2024-02-10T07:58:18.023Z,8.30
2024-02-10T08:00:48.265Z,8.30
2024-02-10T08:03:16.757Z,8.30
2024-02-10T08:05:45.098Z,8.40
2024-02-10T08:08:15.066Z,8.40
2024-02-10T08:10:43.437Z,8.40
2024-02-10T08:13:11.816Z,8.50
2024-02-10T08:15:40.674Z,8.50
2024-02-10T08:18:11.020Z,8.50
2024-02-10T08:20:42.732Z,8.50
2024-02-10T08:23:14.054Z,8.60
2024-02-10T08:25:45.158Z,8.60
2024-02-10T08:28:13.560Z,8.60
2024-02-10T08:30:41.841Z,8.70
2024-02-10T08:33:10.213Z,8.70
2024-02-10T08:35:40.759Z,8.80
2024-02-10T08:38:10.827Z,8.90
2024-02-10T08:40:39.143Z,9.00
2024-02-10T08:43:10.631Z,9.10
2024-02-10T08:45:40.377Z,9.10
2024-02-10T08:48:12.412Z,9.20
2024-02-10T08:50:43.051Z,9.20
2024-02-10T08:53:15.768Z,9.30
2024-02-10T08:55:44.541Z,9.40
2024-02-10T08:58:14.745Z,9.40
2024-02-10T09:00:46.953Z,9.60
2024-02-10T09:03:15.997Z,9.70
2024-02-10T09:05:44.607Z,10.10
2024-02-10T09:13:10.419Z,11.60
2024-02-10T09:15:40.212Z,12.00
2024-02-10T09:18:08.930Z,11.60
2024-02-10T09:20:37.401Z,11.40
2024-02-10T09:23:06.148Z,11.40
2024-02-10T09:25:38.664Z,11.20
2024-02-10T09:28:07.744Z,10.80
2024-02-10T09:30:37.854Z,10.70
2024-02-10T09:33:21.267Z,10.60
2024-02-10T09:35:50.052Z,10.60
2024-02-10T09:38:18.288Z,10.50
2024-02-10T09:40:46.621Z,10.50
2024-02-10T09:43:17.689Z,10.50
2024-02-10T09:45:47.880Z,10.50
2024-02-10T09:48:21.321Z,10.60
2024-02-10T09:50:49.951Z,10.80
2024-02-10T09:53:18.430Z,10.80
2024-02-10T09:55:47.451Z,10.80
2024-02-10T09:58:18.119Z,10.60
2024-02-10T10:00:49.065Z,10.40
2024-02-10T10:03:19.041Z,10.40
2024-02-10T10:05:48.821Z,10.40
2024-02-10T10:08:23.228Z,10.30
2024-02-10T10:10:52.206Z,10.30
2024-02-10T10:13:20.640Z,10.40
2024-02-10T10:15:48.931Z,10.50
2024-02-10T10:18:20.982Z,10.60
2024-02-10T10:20:50.037Z,10.60
2024-02-10T10:23:18.971Z,10.60
2024-02-10T10:25:48.998Z,10.60
2024-02-10T10:28:19.800Z,10.60
2024-02-10T10:30:49.541Z,10.60
2024-02-10T10:33:23.247Z,10.50
2024-02-10T10:35:52.025Z,10.30
2024-02-10T10:38:23.752Z,10.30
2024-02-10T10:40:54.617Z,10.30
2024-02-10T10:43:23.926Z,10.20
2024-02-10T10:45:56.276Z,10.30
2024-02-10T10:48:26.829Z,10.20
2024-02-10T10:50:58.912Z,10.30
2024-02-10T10:53:29.051Z,10.40
2024-02-10T10:56:01.207Z,10.40
2024-02-10T10:58:33.729Z,10.60
2024-02-10T11:01:03.718Z,10.70
2024-02-10T11:03:33.590Z,10.90
2024-02-10T11:06:12.277Z,11.00
2024-02-10T11:08:46.636Z,11.20
2024-02-10T11:11:15.880Z,11.30
2024-02-10T11:13:45.497Z,11.30
2024-02-10T11:16:15.732Z,11.30
2024-02-10T11:18:47.422Z,11.20
2024-02-10T11:21:20.923Z,11.20
2024-02-10T11:24:01.071Z,11.20
2024-02-10T11:26:30.675Z,11.30
2024-02-10T11:29:02.651Z,11.30
2024-02-10T11:31:31.131Z,11.40
2024-02-10T11:34:07.129Z,11.40
2024-02-10T11:36:37.329Z,11.50
2024-02-10T11:39:11.271Z,11.70
2024-02-10T11:41:41.285Z,11.60
2024-02-10T11:44:10.041Z,11.80
2024-02-10T11:46:38.833Z,11.90
2024-02-10T11:49:11.930Z,12.00
2024-02-10T11:51:40.457Z,12.10
2024-02-10T11:54:08.930Z,12.20
2024-02-10T11:56:37.967Z,12.30
2024-02-10T11:59:06.467Z,12.20
2024-02-10T12:01:35.806Z,12.40
2024-02-10T12:04:05.798Z,12.40
2024-02-10T12:06:37.922Z,12.50
2024-02-10T12:09:10.917Z,12.60
2024-02-10T12:11:39.546Z,12.60
2024-02-10T12:14:15.337Z,12.50
2024-02-10T12:16:45.875Z,12.40
2024-02-10T12:19:16.125Z,12.40
2024-02-10T12:21:48.770Z,12.40
2024-02-10T12:24:17.902Z,12.40
2024-02-10T12:26:46.272Z,12.40
2024-02-10T12:29:15.293Z,12.30
2024-02-10T12:31:44.468Z,12.30
2024-02-10T12:34:15.866Z,12.40
2024-02-10T12:36:46.007Z,12.30
2024-02-10T12:39:16.198Z,12.30
2024-02-10T12:41:45.287Z,12.20
2024-02-10T12:44:13.827Z,12.20
2024-02-10T12:46:42.240Z,12.10
2024-02-10T12:49:11.059Z,12.10
2024-02-10T12:51:42.358Z,12.10
2024-02-10T12:54:15.018Z,12.10
2024-02-10T12:56:43.765Z,12.00
2024-02-10T12:59:12.348Z,11.90
2024-02-10T13:01:40.930Z,11.80
2024-02-10T13:04:09.450Z,11.80
2024-02-10T13:06:37.877Z,11.80
2024-02-10T13:09:06.274Z,11.80
2024-02-10T13:11:36.048Z,11.80
2024-02-10T13:14:04.396Z,11.80
2024-02-10T13:16:32.762Z,11.90
2024-02-10T13:19:01.200Z,11.90
2024-02-10T13:21:29.603Z,11.90
2024-02-10T13:23:58.342Z,11.90
2024-02-10T13:26:26.600Z,11.90
2024-02-10T13:28:56.545Z,11.90
2024-02-10T13:31:25.219Z,11.90
2024-02-10T13:33:55.266Z,11.90
2024-02-10T13:36:36.974Z,11.90
2024-02-10T13:39:23.164Z,12.00
2024-02-10T13:42:08.560Z,11.90
2024-02-10T13:44:55.589Z,11.90
2024-02-10T13:47:41.430Z,11.80
2024-02-10T13:50:30.888Z,11.90
2024-02-10T13:53:16.472Z,12.00
2024-02-10T13:56:02.386Z,11.90
2024-02-10T13:58:29.541Z,11.90
2024-02-10T14:00:59.544Z,11.90
2024-02-10T14:03:32.330Z,11.80
2024-02-10T14:06:09.741Z,11.80
2024-02-10T14:08:43.610Z,11.70
2024-02-10T14:11:21.600Z,11.70
2024-02-10T14:13:53.224Z,11.70
2024-02-10T14:16:29.270Z,11.60
2024-02-10T14:19:01.104Z,11.60
2024-02-10T14:21:37.491Z,11.50
2024-02-10T14:24:07.477Z,11.50
2024-02-10T14:26:53.879Z,11.50
2024-02-10T14:29:34.758Z,11.40
2024-02-10T14:32:11.521Z,11.40
2024-02-10T14:35:02.035Z,11.30
2024-02-10T14:37:42.602Z,11.30
2024-02-10T14:40:17.184Z,11.20
2024-02-10T14:42:45.689Z,11.10
2024-02-10T14:45:20.301Z,11.10
2024-02-10T14:47:50.164Z,11.10
2024-02-10T14:50:19.250Z,11.00
2024-02-10T14:52:48.686Z,10.90
2024-02-10T14:55:20.678Z,10.90
2024-02-10T14:57:49.146Z,10.90
2024-02-10T15:00:18.307Z,10.90
2024-02-10T15:02:46.614Z,10.80
2024-02-10T15:05:16.454Z,10.80
2024-02-10T15:07:44.782Z,10.70
2024-02-10T15:10:13.182Z,10.70
2024-02-10T15:12:41.569Z,10.70
2024-02-10T15:15:12.196Z,10.60
2024-02-10T15:17:40.506Z,10.60
2024-02-10T15:20:10.470Z,10.50
2024-02-10T15:22:42.956Z,10.50
2024-02-10T15:25:15.368Z,10.40
2024-02-10T15:27:45.825Z,10.40
2024-02-10T15:30:15.049Z,10.40
2024-02-10T15:32:47.710Z,10.30
2024-02-10T15:35:16.194Z,10.20
2024-02-10T15:37:45.974Z,10.10
2024-02-10T15:40:21.970Z,10.10
2024-02-10T15:42:52.210Z,10.10
2024-02-10T15:45:31.265Z,10.10
2024-02-10T15:47:59.885Z,10.00
2024-02-10T15:50:28.187Z,9.90
2024-02-10T15:52:57.829Z,9.80
2024-02-10T15:55:26.137Z,9.70
2024-02-10T15:57:54.484Z,9.60
2024-02-10T16:00:24.915Z,9.60
2024-02-10T16:02:53.651Z,9.80
2024-02-10T16:05:23.352Z,9.90
2024-02-10T16:07:53.204Z,9.90
2024-02-10T16:10:23.075Z,9.90
2024-02-10T16:12:52.471Z,10.10
2024-02-10T16:15:22.632Z,10.10
2024-02-10T16:17:52.329Z,10.10
2024-02-10T16:20:22.364Z,10.10
2024-02-10T16:22:52.792Z,10.10
2024-02-10T16:25:28.590Z,10.00
2024-02-10T16:27:59.091Z,9.90
2024-02-10T16:30:29.560Z,9.80
2024-02-10T16:32:57.997Z,9.70
2024-02-10T16:35:27.842Z,9.70
2024-02-10T16:37:57.579Z,9.70
2024-02-10T16:40:30.976Z,9.60
2024-02-10T16:42:59.904Z,9.60
2024-02-10T16:45:28.867Z,9.50
2024-02-10T16:47:57.214Z,9.40
2024-02-10T16:50:28.479Z,9.20
2024-02-10T16:53:06.559Z,9.10
2024-02-10T16:55:38.547Z,8.90
2024-02-10T16:58:09.196Z,8.60
2024-02-10T17:00:37.750Z,8.40
2024-02-10T17:03:09.187Z,8.30
2024-02-10T17:05:41.011Z,8.20
2024-02-10T17:08:09.898Z,8.10
2024-02-10T17:10:41.342Z,8.00
2024-02-10T17:13:11.214Z,8.00
2024-02-10T17:15:40.163Z,7.90
2024-02-10T17:18:15.517Z,7.90
2024-02-10T17:20:48.335Z,7.80
2024-02-10T17:23:18.287Z,7.90
2024-02-10T17:25:48.012Z,8.20
2024-02-10T17:28:16.489Z,8.40
2024-02-10T17:30:45.443Z,8.40
2024-02-10T17:33:13.964Z,8.70
2024-02-10T17:35:45.654Z,8.90
2024-02-10T17:38:15.992Z,8.90
2024-02-10T17:40:45.087Z,8.90
2024-02-10T17:43:17.478Z,8.80
2024-02-10T17:45:46.699Z,8.70
2024-02-10T17:48:21.687Z,8.60
2024-02-10T17:50:50.435Z,8.50
2024-02-10T17:53:23.912Z,8.50
2024-02-10T17:55:55.440Z,8.40
2024-02-10T17:58:31.290Z,8.40
2024-02-10T18:01:00.442Z,8.40
2024-02-10T18:03:32.222Z,8.50
2024-02-10T18:06:02.089Z,8.70
2024-02-10T18:08:36.220Z,8.70
2024-02-10T18:11:04.604Z,8.60
2024-02-10T18:13:34.506Z,8.50
2024-02-10T18:16:02.837Z,8.50
2024-02-10T18:18:34.429Z,8.40
2024-02-10T18:21:03.121Z,8.40
2024-02-10T18:23:34.096Z,8.20
2024-02-10T18:26:02.576Z,8.10
2024-02-10T18:28:31.541Z,8.20
2024-02-10T18:31:02.602Z,8.20
2024-02-10T18:33:31.045Z,8.20
2024-02-10T18:36:00.605Z,8.20
2024-02-10T18:38:28.885Z,8.20
2024-02-10T18:41:00.734Z,8.20
2024-02-10T18:43:31.322Z,8.30
2024-02-10T18:46:01.402Z,8.40
2024-02-10T18:48:29.988Z,8.40
2024-02-10T18:50:58.390Z,8.30
2024-02-10T18:53:26.687Z,8.20
2024-02-10T18:55:55.387Z,8.20
2024-02-10T18:58:23.769Z,8.20
2024-02-10T19:00:52.615Z,8.10
2024-02-10T19:03:23.523Z,8.10
2024-02-10T19:05:55.120Z,8.10
2024-02-10T19:08:23.861Z,8.10
2024-02-10T19:10:52.172Z,8.10
2024-02-10T19:13:28.187Z,8.10
2024-02-10T19:15:56.449Z,8.00
2024-02-10T19:18:26.156Z,8.00
2024-02-10T19:20:55.909Z,7.90
2024-02-10T19:23:24.201Z,7.90
2024-02-10T19:25:53.002Z,7.90
2024-02-10T19:28:21.270Z,8.00
2024-02-10T19:30:51.192Z,8.00
2024-02-10T19:33:20.093Z,7.90
2024-02-10T19:35:50.678Z,7.80
2024-02-10T19:38:26.434Z,7.70
2024-02-10T19:40:59.464Z,7.70
2024-02-10T19:43:29.934Z,7.60
2024-02-10T19:45:59.290Z,7.60
2024-02-10T19:48:29.860Z,7.40
2024-02-10T19:51:00.065Z,7.30
2024-02-10T19:53:29.814Z,7.20
2024-02-10T19:55:58.386Z,7.30
2024-02-10T19:58:28.590Z,7.30
2024-02-10T20:00:59.396Z,7.20
2024-02-10T20:03:28.983Z,7.10
2024-02-10T20:05:58.831Z,7.10
2024-02-10T20:08:29.130Z,7.00
2024-02-10T20:10:57.654Z,6.90
2024-02-10T20:13:27.007Z,6.90
2024-02-10T20:15:55.410Z,6.80
2024-02-10T20:18:23.738Z,6.70
2024-02-10T20:20:52.000Z,6.60
2024-02-10T20:23:22.090Z,6.60
2024-02-10T20:25:55.209Z,6.60
2024-02-10T20:28:23.528Z,6.60
2024-02-10T20:30:52.055Z,6.70
2024-02-10T20:33:20.445Z,6.70
2024-02-10T20:35:48.965Z,6.60
2024-02-10T20:38:17.426Z,6.80
2024-02-10T20:40:46.104Z,6.80
2024-02-10T20:43:15.869Z,6.80
2024-02-10T20:45:44.331Z,6.70
2024-02-10T20:48:12.909Z,6.60
2024-02-10T20:50:41.810Z,6.50
2024-02-10T20:53:11.483Z,6.40
2024-02-10T20:55:40.016Z,6.30
2024-02-10T20:58:12.623Z,6.20
2024-02-10T21:00:42.330Z,6.20
2024-02-10T21:03:13.517Z,6.30
2024-02-10T21:05:42.086Z,6.30
2024-02-10T21:08:10.502Z,6.30
2024-02-10T21:10:38.869Z,6.30
2024-02-10T21:13:07.169Z,6.30
2024-02-10T21:15:35.435Z,6.30
2024-02-10T21:18:07.169Z,6.20
2024-02-10T21:20:35.567Z,6.20
2024-02-10T21:23:04.856Z,6.30
2024-02-10T21:25:34.634Z,6.40
2024-02-10T21:28:02.963Z,6.40
2024-02-10T21:30:34.212Z,6.40
2024-02-10T21:33:03.544Z,6.40
2024-02-10T21:35:33.297Z,6.40
2024-02-10T21:38:01.813Z,6.30
2024-02-10T21:40:30.135Z,6.30
2024-02-10T21:42:58.476Z,6.30
2024-02-10T21:45:26.743Z,6.40
2024-02-10T21:47:55.878Z,6.50
2024-02-10T21:50:24.913Z,6.50
2024-02-10T21:52:55.713Z,6.40
2024-02-10T21:55:23.985Z,6.40
2024-02-10T21:57:52.815Z,6.20
2024-02-10T22:00:26.595Z,6.10
2024-02-10T22:02:55.055Z,6.00
2024-02-10T22:05:23.507Z,5.90
2024-02-10T22:07:52.005Z,5.80
2024-02-10T22:10:22.681Z,5.70
2024-02-10T22:12:50.937Z,5.70
2024-02-10T22:15:20.594Z,5.60
2024-02-10T22:17:49.776Z,5.50
2024-02-10T22:20:21.320Z,5.50
2024-02-10T22:22:51.568Z,5.50
2024-02-10T22:25:23.552Z,5.40
2024-02-10T22:27:52.594Z,5.50
2024-02-10T22:30:22.790Z,5.40
2024-02-10T22:32:52.509Z,5.30
2024-02-10T22:35:21.156Z,5.30
2024-02-10T22:37:57.799Z,5.20
2024-02-10T22:40:28.474Z,5.20
2024-02-10T22:42:59.296Z,5.30
2024-02-10T22:45:27.596Z,5.40
2024-02-10T22:47:56.092Z,5.40
2024-02-10T22:50:24.506Z,5.30
2024-02-10T22:52:53.001Z,5.30
2024-02-10T22:55:21.471Z,5.20
2024-02-10T22:57:51.168Z,5.10
2024-02-10T23:00:29.838Z,5.00
2024-02-10T23:02:58.251Z,4.90
2024-02-10T23:05:26.585Z,4.90
2024-02-10T23:07:55.679Z,4.80
2024-02-10T23:10:24.109Z,4.80
2024-02-10T23:13:07.345Z,4.90
2024-02-10T23:15:36.866Z,4.90
2024-02-10T23:18:12.093Z,5.00
2024-02-10T23:20:42.713Z,5.00
2024-02-10T23:23:14.504Z,5.10
2024-02-10T23:25:44.420Z,5.10
2024-02-10T23:28:17.012Z,5.10
2024-02-10T23:30:51.104Z,5.10
2024-02-10T23:33:20.980Z,5.10
2024-02-10T23:35:51.920Z,5.10
2024-02-10T23:38:22.351Z,5.10
2024-02-10T23:40:50.769Z,5.10
2024-02-10T23:43:23.409Z,5.10
2024-02-10T23:45:51.938Z,5.10
2024-02-10T23:48:24.441Z,5.10
2024-02-10T23:50:53.498Z,5.10
2024-02-10T23:53:22.993Z,5.10
2024-02-10T23:55:51.336Z,5.00
2024-02-10T23:58:21.700Z,4.90
